createdAt,value
2018-08-06T00:00:22.549Z,24.26
2018-08-06T00:02:51.085Z,24.30
2018-08-06T00:05:19.597Z,24.33
2018-08-06T00:07:48.453Z,24.31
2018-08-06T00:10:20.737Z,24.31
2018-08-06T00:12:49.271Z,24.25
2018-08-06T00:15:17.729Z,24.25
2018-08-06T00:17:46.294Z,24.22
2018-08-06T00:20:15.577Z,24.18
2018-08-06T00:22:44.342Z,24.19
2018-08-06T00:25:14.277Z,24.17
2018-08-06T00:27:43.356Z,24.12
2018-08-06T00:30:13.593Z,24.13
2018-08-06T00:32:43.081Z,24.09
2018-08-06T00:35:12.617Z,24.06
2018-08-06T00:37:41.374Z,24.04
2018-08-06T00:40:15.125Z,24.05
2018-08-06T00:42:44.386Z,23.97
2018-08-06T00:45:15.955Z,23.93
2018-08-06T00:47:45.072Z,23.91
2018-08-06T00:50:13.810Z,23.89
2018-08-06T00:52:42.254Z,23.86
2018-08-06T00:55:14.388Z,23.83
2018-08-06T00:57:43.161Z,23.76
2018-08-06T01:00:14.217Z,23.68
2018-08-06T01:02:42.993Z,23.68
2018-08-06T01:05:13.102Z,23.58
2018-08-06T01:07:42.134Z,23.51
2018-08-06T01:10:16.269Z,23.47
2018-08-06T01:12:44.792Z,23.43
2018-08-06T01:15:15.061Z,23.45
2018-08-06T01:17:43.610Z,23.41
2018-08-06T01:20:13.329Z,23.39
2018-08-06T01:22:42.822Z,23.34
2018-08-06T01:25:12.245Z,23.33
2018-08-06T01:27:40.805Z,23.26
2018-08-06T01:30:11.607Z,23.16
2018-08-06T01:32:40.070Z,23.12
2018-08-06T01:35:10.576Z,23.10
2018-08-06T01:37:39.133Z,23.05
2018-08-06T01:40:10.805Z,23.07
2018-08-06T01:42:39.682Z,23.04
2018-08-06T01:45:08.824Z,23.06
2018-08-06T01:47:37.996Z,22.99
2018-08-06T01:50:07.385Z,22.95
2018-08-06T01:52:35.895Z,22.90
2018-08-06T01:55:04.746Z,22.91
2018-08-06T01:57:33.173Z,22.87
2018-08-06T02:00:01.623Z,22.89
2018-08-06T02:02:30.225Z,22.80
2018-08-06T02:04:58.648Z,22.73
2018-08-06T02:07:27.123Z,22.71
2018-08-06T02:09:55.961Z,22.71
2018-08-06T02:12:24.477Z,22.70
2018-08-06T02:14:52.953Z,22.67
2018-08-06T02:17:21.513Z,22.57
2018-08-06T02:19:49.989Z,22.54
2018-08-06T02:22:18.521Z,22.49
2018-08-06T02:24:46.998Z,22.46
2018-08-06T02:27:15.510Z,22.46
2018-08-06T02:29:44.039Z,22.44
2018-08-06T02:32:12.753Z,22.46
2018-08-06T02:34:41.209Z,22.49
2018-08-06T02:37:09.996Z,22.43
2018-08-06T02:39:38.485Z,22.34
2018-08-06T02:42:07.047Z,22.28
2018-08-06T02:44:35.553Z,22.20
2018-08-06T02:47:04.069Z,22.15
2018-08-06T02:49:32.513Z,22.11
2018-08-06T02:52:01.050Z,22.14
2018-08-06T02:54:29.529Z,22.15
2018-08-06T02:56:57.969Z,22.13
2018-08-06T02:59:26.490Z,22.12
2018-08-06T03:01:54.933Z,22.05
2018-08-06T03:04:23.386Z,22.00
2018-08-06T03:06:51.912Z,21.93
2018-08-06T03:09:20.348Z,21.94
2018-08-06T03:11:48.858Z,21.90
2018-08-06T03:14:17.353Z,21.84
2018-08-06T03:16:45.894Z,21.85
2018-08-06T03:19:14.297Z,21.80
2018-08-06T03:21:42.809Z,21.74
2018-08-06T03:24:11.769Z,21.64
2018-08-06T03:26:40.173Z,21.56
2018-08-06T03:29:08.765Z,21.51
2018-08-06T03:31:37.254Z,21.43
2018-08-06T03:34:05.774Z,21.36
2018-08-06T03:39:00.098Z,21.33
2018-08-06T03:41:28.632Z,21.27
2018-08-06T03:43:57.149Z,21.21
2018-08-06T03:46:25.657Z,21.22
2018-08-06T03:48:54.407Z,21.21
2018-08-06T03:51:22.963Z,21.25
2018-08-06T03:53:51.447Z,21.27
2018-08-06T03:56:20.665Z,21.28
2018-08-06T03:58:50.226Z,21.22
2018-08-06T04:01:18.738Z,21.24
2018-08-06T04:03:47.229Z,21.26
2018-08-06T04:06:16.027Z,21.27
2018-08-06T04:08:44.625Z,21.23
2018-08-06T04:11:13.389Z,21.21
2018-08-06T04:13:42.326Z,21.18
2018-08-06T04:16:11.441Z,21.09
2018-08-06T04:18:39.902Z,21.05
2018-08-06T04:21:08.521Z,21.04
2018-08-06T04:23:37.077Z,21.05
2018-08-06T04:26:05.900Z,21.05
2018-08-06T04:28:34.492Z,21.09
2018-08-06T04:31:02.926Z,21.13
2018-08-06T04:33:31.506Z,21.15
2018-08-06T04:35:59.978Z,21.14
2018-08-06T04:38:28.560Z,21.16
2018-08-06T04:40:57.048Z,21.18
2018-08-06T04:43:25.529Z,21.20
2018-08-06T04:45:54.088Z,21.29
2018-08-06T04:48:22.517Z,21.37
2018-08-06T04:50:51.013Z,21.41
2018-08-06T04:53:19.446Z,21.47
2018-08-06T04:55:47.982Z,21.53
2018-08-06T04:58:16.950Z,21.60
2018-08-06T05:00:45.485Z,21.67
2018-08-06T05:03:14.002Z,21.75
2018-08-06T05:05:42.488Z,21.80
2018-08-06T05:08:11.373Z,21.80
2018-08-06T05:10:39.870Z,21.82
2018-08-06T05:13:08.611Z,21.88
2018-08-06T05:15:37.179Z,21.90
2018-08-06T05:18:05.873Z,21.98
2018-08-06T05:20:34.310Z,22.02
2018-08-06T05:23:02.710Z,22.03
2018-08-06T05:25:31.190Z,22.09
2018-08-06T05:27:59.630Z,22.15
2018-08-06T05:30:28.138Z,22.20
2018-08-06T05:32:56.620Z,22.27
2018-08-06T05:35:25.055Z,22.26
2018-08-06T05:37:53.554Z,22.34
2018-08-06T05:40:22.077Z,22.44
2018-08-06T05:42:50.578Z,22.52
2018-08-06T05:45:19.017Z,22.63
2018-08-06T05:47:47.512Z,22.78
2018-08-06T05:50:15.996Z,22.86
2018-08-06T05:52:44.497Z,22.88
2018-08-06T05:55:13.126Z,22.91
2018-08-06T05:57:42.493Z,22.98
2018-08-06T06:00:16.653Z,22.99
2018-08-06T06:02:45.936Z,23.08
2018-08-06T06:05:14.487Z,23.21
2018-08-06T06:07:43.437Z,23.36
2018-08-06T06:10:14.369Z,23.47
2018-08-06T06:12:42.973Z,23.64
2018-08-06T06:15:14.395Z,23.79
2018-08-06T06:17:43.873Z,23.86
2018-08-06T06:20:12.698Z,24.00
2018-08-06T06:22:41.177Z,24.09
2018-08-06T06:25:11.972Z,24.18
2018-08-06T06:27:40.474Z,24.32
2018-08-06T06:30:12.489Z,24.41
2018-08-06T06:32:40.957Z,24.57
2018-08-06T06:35:10.006Z,24.72
2018-08-06T06:37:38.669Z,24.99
2018-08-06T06:40:07.145Z,25.12
2018-08-06T06:42:35.574Z,25.31
2018-08-06T06:45:04.881Z,25.41
2018-08-06T06:47:33.370Z,25.51
2018-08-06T06:50:01.913Z,25.72
2018-08-06T06:52:30.330Z,25.78
2018-08-06T06:54:58.836Z,25.60
2018-08-06T06:57:27.297Z,25.62
2018-08-06T06:59:55.837Z,25.79
2018-08-06T07:02:24.258Z,25.90
2018-08-06T07:04:53.109Z,25.91
2018-08-06T07:07:21.541Z,25.82
2018-08-06T07:09:50.489Z,25.90
2018-08-06T07:12:19.021Z,25.90
2018-08-06T07:14:47.482Z,25.91
2018-08-06T07:17:15.997Z,25.92
2018-08-06T07:19:44.480Z,25.96
2018-08-06T07:22:13.390Z,26.02
2018-08-06T07:24:41.874Z,26.10
2018-08-06T07:27:10.834Z,26.17
2018-08-06T07:29:39.321Z,26.26
2018-08-06T07:32:07.953Z,26.46
2018-08-06T07:34:36.445Z,26.65
2018-08-06T07:37:05.369Z,26.77
2018-08-06T07:39:33.814Z,26.79
2018-08-06T07:42:02.381Z,26.83
2018-08-06T07:44:30.890Z,27.08
2018-08-06T07:46:59.497Z,27.09
2018-08-06T07:49:28.005Z,27.31
2018-08-06T07:51:56.494Z,27.52
2018-08-06T07:54:24.939Z,27.93
2018-08-06T07:56:53.469Z,28.12
2018-08-06T07:59:21.978Z,28.15
2018-08-06T08:01:50.636Z,28.04
2018-08-06T08:04:19.449Z,28.31
2018-08-06T08:06:47.937Z,28.42
2018-08-06T08:09:16.477Z,28.50
2018-08-06T08:11:44.975Z,28.51
2018-08-06T08:14:13.475Z,28.56
2018-08-06T08:16:42.039Z,28.66
2018-08-06T08:19:11.139Z,28.86
2018-08-06T08:21:39.638Z,28.92
2018-08-06T08:24:08.264Z,28.87
2018-08-06T08:26:36.787Z,28.89
2018-08-06T08:29:05.395Z,28.65
2018-08-06T08:31:33.914Z,28.66
2018-08-06T08:34:02.469Z,28.47
2018-08-06T08:36:31.041Z,28.25
2018-08-06T08:38:59.571Z,28.31
2018-08-06T08:41:28.042Z,28.51
2018-08-06T08:43:56.566Z,28.84
2018-08-06T08:46:25.026Z,28.92
2018-08-06T08:48:53.477Z,29.14
2018-08-06T08:51:21.981Z,29.27
2018-08-06T08:53:50.481Z,29.31
2018-08-06T08:56:18.924Z,29.07
2018-08-06T08:58:47.491Z,29.28
2018-08-06T09:01:15.882Z,29.43
2018-08-06T09:03:44.386Z,29.46
2018-08-06T09:06:13.155Z,29.73
2018-08-06T09:08:41.686Z,29.89
2018-08-06T09:11:11.541Z,30.29
2018-08-06T09:13:39.988Z,30.26
2018-08-06T09:16:08.577Z,30.23
2018-08-06T09:18:37.141Z,30.40
2018-08-06T09:21:05.638Z,30.64
2018-08-06T09:23:34.190Z,30.96
2018-08-06T09:26:02.682Z,31.09
2018-08-06T09:28:31.255Z,31.21
2018-08-06T09:30:59.697Z,31.24
2018-08-06T09:33:28.312Z,31.58
2018-08-06T09:35:56.764Z,31.76
2018-08-06T09:38:25.276Z,31.97
2018-08-06T09:40:53.814Z,32.23
2018-08-06T09:43:22.339Z,32.50
2018-08-06T09:45:50.797Z,32.59
2018-08-06T09:48:19.313Z,32.87
2018-08-06T09:50:47.820Z,33.24
2018-08-06T09:53:16.277Z,34.01
2018-08-06T09:55:44.693Z,34.61
2018-08-06T09:58:13.382Z,35.34
2018-08-06T10:00:46.070Z,35.49
2018-08-06T10:03:14.651Z,36.03
2018-08-06T10:05:43.417Z,36.46
2018-08-06T10:08:12.213Z,36.33
2018-08-06T10:10:40.673Z,36.93
2018-08-06T10:13:09.587Z,37.16
2018-08-06T10:15:38.101Z,37.14
2018-08-06T10:18:06.661Z,37.68
2018-08-06T10:20:35.166Z,37.73
2018-08-06T10:23:03.741Z,37.89
2018-08-06T10:25:32.303Z,38.04
2018-08-06T10:28:00.882Z,38.01
2018-08-06T10:30:29.352Z,38.55
2018-08-06T10:32:57.810Z,38.62
2018-08-06T10:35:26.247Z,38.94
2018-08-06T10:37:54.741Z,39.41
2018-08-06T10:40:24.197Z,39.77
2018-08-06T10:42:52.910Z,40.22
2018-08-06T10:45:24.585Z,39.22
2018-08-06T10:47:53.660Z,39.03
2018-08-06T10:50:22.105Z,38.13
2018-08-06T10:52:50.814Z,38.25
2018-08-06T10:55:19.350Z,39.25
2018-08-06T10:57:47.805Z,39.95
2018-08-06T11:00:18.445Z,40.16
2018-08-06T11:02:47.360Z,40.60
2018-08-06T11:05:16.741Z,40.71
2018-08-06T11:07:45.272Z,40.45
2018-08-06T11:10:18.042Z,40.86
2018-08-06T11:12:46.541Z,40.51
2018-08-06T11:15:17.294Z,41.00
2018-08-06T11:17:45.929Z,40.98
2018-08-06T11:20:15.520Z,41.36
2018-08-06T11:22:44.018Z,41.75
2018-08-06T11:25:16.024Z,41.19
2018-08-06T11:27:44.533Z,40.98
2018-08-06T11:30:17.427Z,40.80
2018-08-06T11:32:46.710Z,41.33
2018-08-06T11:35:15.861Z,41.85
2018-08-06T11:37:44.381Z,42.96
2018-08-06T11:40:14.258Z,42.92
2018-08-06T11:42:43.501Z,43.20
2018-08-06T11:45:15.485Z,42.83
2018-08-06T11:47:44.093Z,43.43
2018-08-06T11:50:13.589Z,43.94
2018-08-06T11:52:42.243Z,44.26
2018-08-06T11:55:11.377Z,44.64
2018-08-06T11:57:39.893Z,44.66
2018-08-06T12:00:13.797Z,45.15
2018-08-06T12:02:42.293Z,45.68
2018-08-06T12:05:11.228Z,45.85
2018-08-06T12:07:39.776Z,46.35
2018-08-06T12:10:11.238Z,45.30
2018-08-06T12:12:39.805Z,45.03
2018-08-06T12:15:09.672Z,45.39
2018-08-06T12:17:38.833Z,45.58
2018-08-06T12:20:11.154Z,45.04
2018-08-06T12:22:40.718Z,46.69
2018-08-06T12:25:11.946Z,47.39
2018-08-06T12:27:40.653Z,46.98
2018-08-06T12:30:13.546Z,46.87
2018-08-06T12:32:42.620Z,48.29
2018-08-06T12:35:11.595Z,48.69
2018-08-06T12:37:40.166Z,48.95
2018-08-06T12:40:11.661Z,49.06
2018-08-06T12:42:40.233Z,47.74
2018-08-06T12:45:10.272Z,47.47
2018-08-06T12:47:39.379Z,48.19
2018-08-06T12:50:09.360Z,48.60
2018-08-06T12:52:38.289Z,48.74
2018-08-06T12:55:08.170Z,49.88
2018-08-06T12:57:36.885Z,49.80
2018-08-06T13:00:08.851Z,49.57
2018-08-06T13:02:37.366Z,49.40
2018-08-06T13:05:06.225Z,49.54
2018-08-06T13:07:34.666Z,49.22
2018-08-06T13:10:03.130Z,50.22
2018-08-06T13:12:31.629Z,49.90
2018-08-06T13:15:00.055Z,49.56
2018-08-06T13:17:28.574Z,50.05
2018-08-06T13:19:57.002Z,50.22
2018-08-06T13:22:25.525Z,50.96
2018-08-06T13:24:54.149Z,51.35
2018-08-06T13:27:22.570Z,50.78
2018-08-06T13:29:51.050Z,51.38
2018-08-06T13:32:19.617Z,51.34
2018-08-06T13:34:48.094Z,52.17
2018-08-06T13:37:16.660Z,51.49
2018-08-06T13:39:45.165Z,51.45
2018-08-06T13:42:13.772Z,52.94
2018-08-06T13:44:42.414Z,52.36
2018-08-06T13:47:11.500Z,52.76
2018-08-06T13:49:40.046Z,53.56
2018-08-06T13:52:08.769Z,53.02
2018-08-06T13:54:37.234Z,52.53
2018-08-06T13:57:05.762Z,53.00
2018-08-06T13:59:35.309Z,52.58
2018-08-06T14:02:03.873Z,52.13
2018-08-06T14:04:32.389Z,49.86
2018-08-06T14:07:00.880Z,48.58
2018-08-06T14:09:29.343Z,47.25
2018-08-06T14:11:57.769Z,45.92
2018-08-06T14:14:26.315Z,45.86
2018-08-06T14:16:54.912Z,45.43
2018-08-06T14:19:23.409Z,45.34
2018-08-06T14:21:51.990Z,46.06
2018-08-06T14:24:20.442Z,47.80
2018-08-06T14:26:48.897Z,49.35
2018-08-06T14:29:17.402Z,50.03
2018-08-06T14:31:45.917Z,50.66
2018-08-06T14:34:14.426Z,49.71
2018-08-06T14:36:42.795Z,49.04
2018-08-06T14:39:12.821Z,49.64
2018-08-06T14:41:41.679Z,49.61
2018-08-06T14:44:10.945Z,49.52
2018-08-06T14:46:39.982Z,48.52
2018-08-06T14:49:09.581Z,49.38
2018-08-06T14:51:38.127Z,47.30
2018-08-06T14:54:06.686Z,46.20
2018-08-06T14:56:35.201Z,45.29
2018-08-06T14:59:03.707Z,45.17
2018-08-06T15:01:32.155Z,45.22
2018-08-06T15:04:00.675Z,47.06
2018-08-06T15:06:29.110Z,48.70
2018-08-06T15:08:57.630Z,50.78
2018-08-06T15:11:26.137Z,50.94
2018-08-06T15:13:54.573Z,51.70
2018-08-06T15:16:23.191Z,51.49
2018-08-06T15:18:51.663Z,52.31
2018-08-06T15:21:20.113Z,52.82
2018-08-06T15:23:48.643Z,53.06
2018-08-06T15:26:17.215Z,52.34
2018-08-06T15:28:45.761Z,53.27
2018-08-06T15:31:14.242Z,52.38
2018-08-06T15:33:42.738Z,52.25
2018-08-06T15:36:11.561Z,52.15
2018-08-06T15:38:40.020Z,51.32
2018-08-06T15:41:08.836Z,51.97
2018-08-06T15:43:37.439Z,51.97
2018-08-06T15:46:05.886Z,51.29
2018-08-06T15:48:34.448Z,51.75
2018-08-06T15:51:02.917Z,50.90
2018-08-06T15:53:31.413Z,51.75
2018-08-06T15:55:59.877Z,51.92
2018-08-06T15:58:28.396Z,51.75
2018-08-06T16:00:56.819Z,51.63
2018-08-06T16:03:25.360Z,50.65
2018-08-06T16:05:53.857Z,50.75
2018-08-06T16:08:22.346Z,51.74
2018-08-06T16:10:50.740Z,51.71
2018-08-06T16:13:19.245Z,50.95
2018-08-06T16:15:47.763Z,50.66
2018-08-06T16:18:16.237Z,49.72
2018-08-06T16:20:44.753Z,47.02
2018-08-06T16:23:13.640Z,45.92
2018-08-06T16:25:42.229Z,44.41
2018-08-06T16:28:11.426Z,43.55
2018-08-06T16:30:40.001Z,42.18
2018-08-06T16:33:08.788Z,41.13
2018-08-06T16:35:37.689Z,40.51
2018-08-06T16:38:06.312Z,39.78
2018-08-06T16:40:34.801Z,39.10
2018-08-06T16:43:03.429Z,38.76
2018-08-06T16:45:32.025Z,38.43
2018-08-06T16:48:00.567Z,38.01
2018-08-06T16:50:29.166Z,37.71
2018-08-06T16:52:57.789Z,37.38
2018-08-06T16:55:26.353Z,37.14
2018-08-06T16:57:54.893Z,36.84
2018-08-06T17:00:23.693Z,36.75
2018-08-06T17:02:53.042Z,36.56
2018-08-06T17:05:21.613Z,36.34
2018-08-06T17:07:50.945Z,36.19
2018-08-06T17:10:20.846Z,36.01
2018-08-06T17:12:51.752Z,35.87
2018-08-06T17:15:21.113Z,35.73
2018-08-06T17:17:51.005Z,35.61
2018-08-06T17:20:21.021Z,35.47
2018-08-06T17:22:50.401Z,35.36
2018-08-06T17:25:19.061Z,35.27
2018-08-06T17:27:47.591Z,35.14
2018-08-06T17:30:16.689Z,35.09
2018-08-06T17:32:45.785Z,34.98
2018-08-06T17:35:14.982Z,34.91
2018-08-06T17:37:43.504Z,34.80
2018-08-06T17:40:14.817Z,34.70
2018-08-06T17:42:43.448Z,34.59
2018-08-06T17:45:15.090Z,34.51
2018-08-06T17:47:43.553Z,34.41
2018-08-06T17:50:14.723Z,34.32
2018-08-06T17:52:44.049Z,34.15
2018-08-06T17:55:12.909Z,34.02
2018-08-06T17:57:41.314Z,33.90
2018-08-06T18:00:10.452Z,33.76
2018-08-06T18:02:38.992Z,33.58
2018-08-06T18:05:09.625Z,33.46
2018-08-06T18:07:38.249Z,33.31
2018-08-06T18:10:08.657Z,33.32
2018-08-06T18:12:37.220Z,33.29
2018-08-06T18:15:06.131Z,33.24
2018-08-06T18:17:34.728Z,33.14
2018-08-06T18:20:03.402Z,32.98
2018-08-06T18:22:31.958Z,32.87
2018-08-06T18:25:00.557Z,32.86
2018-08-06T18:27:29.053Z,32.83
2018-08-06T18:29:57.565Z,32.85
2018-08-06T18:32:26.206Z,32.83
2018-08-06T18:34:54.643Z,32.79
2018-08-06T18:37:23.183Z,32.65
2018-08-06T18:39:51.697Z,32.40
2018-08-06T18:42:20.182Z,32.20
2018-08-06T18:44:48.704Z,32.03
2018-08-06T18:47:17.186Z,31.92
2018-08-06T18:49:45.614Z,31.88
2018-08-06T18:52:14.239Z,31.86
2018-08-06T18:54:42.709Z,31.84
2018-08-06T18:57:11.577Z,31.76
2018-08-06T18:59:40.006Z,31.71
2018-08-06T19:02:08.549Z,31.73
2018-08-06T19:04:37.057Z,31.61
2018-08-06T19:07:05.581Z,31.46
2018-08-06T19:09:34.146Z,31.38
2018-08-06T19:12:07.978Z,31.31
2018-08-06T19:14:36.500Z,31.25
2018-08-06T19:17:05.001Z,31.10
2018-08-06T19:19:33.453Z,30.95
2018-08-06T19:22:01.949Z,30.83
2018-08-06T19:24:35.703Z,30.76
2018-08-06T19:27:04.269Z,30.71
2018-08-06T19:29:32.842Z,30.68
2018-08-06T19:32:01.370Z,30.71
2018-08-06T19:34:29.858Z,30.70
2018-08-06T19:37:03.746Z,30.67
2018-08-06T19:39:32.257Z,30.57
2018-08-06T19:42:00.790Z,30.48
2018-08-06T19:44:29.257Z,30.24
2018-08-06T19:46:57.765Z,30.10
2018-08-06T19:49:31.425Z,29.94
2018-08-06T19:52:00.043Z,29.78
2018-08-06T19:54:28.533Z,29.59
2018-08-06T19:56:56.997Z,29.47
2018-08-06T19:59:25.558Z,29.40
2018-08-06T20:01:53.961Z,29.41
2018-08-06T20:04:22.445Z,29.41
2018-08-06T20:06:50.922Z,29.41
2018-08-06T20:09:19.413Z,29.40
2018-08-06T20:11:47.849Z,29.31
2018-08-06T20:14:16.376Z,29.22
2018-08-06T20:16:44.842Z,29.17
2018-08-06T20:19:13.706Z,29.23
2018-08-06T20:21:42.202Z,29.35
2018-08-06T20:24:11.206Z,29.30
2018-08-06T20:26:39.653Z,29.25
2018-08-06T20:29:08.173Z,29.28
2018-08-06T20:31:36.641Z,29.33
2018-08-06T20:34:05.167Z,29.44
2018-08-06T20:36:33.718Z,29.45
2018-08-06T20:39:02.215Z,29.43
2018-08-06T20:41:30.674Z,29.43
2018-08-06T20:43:59.748Z,29.44
2018-08-06T20:46:28.325Z,29.36
2018-08-06T20:48:56.833Z,29.29
2018-08-06T20:51:25.341Z,29.24
2018-08-06T20:53:53.819Z,29.23
2018-08-06T20:56:22.279Z,29.14
2018-08-06T20:58:50.750Z,29.13
2018-08-06T21:01:19.269Z,29.01
2018-08-06T21:03:47.769Z,28.94
2018-08-06T21:06:16.176Z,28.86
2018-08-06T21:08:44.697Z,28.81
2018-08-06T21:11:13.707Z,28.78
2018-08-06T21:13:42.210Z,28.82
2018-08-06T21:16:11.270Z,28.79
2018-08-06T21:18:39.745Z,28.79
2018-08-06T21:21:08.205Z,28.79
2018-08-06T21:23:36.799Z,28.78
2018-08-06T21:26:05.825Z,28.72
2018-08-06T21:28:34.349Z,28.73
2018-08-06T21:31:02.809Z,28.71
2018-08-06T21:33:31.420Z,28.71
2018-08-06T21:35:59.893Z,28.69
2018-08-06T21:38:28.443Z,28.64
2018-08-06T21:40:56.877Z,28.54
2018-08-06T21:43:25.366Z,28.54
2018-08-06T21:45:53.833Z,28.56
2018-08-06T21:48:22.305Z,28.46
2018-08-06T21:50:50.801Z,28.40
2018-08-06T21:53:19.361Z,28.29
2018-08-06T21:55:47.822Z,28.33
2018-08-06T21:58:16.341Z,28.25
2018-08-06T22:00:44.841Z,28.13
2018-08-06T22:03:14.705Z,28.04
2018-08-06T22:05:43.509Z,27.86
2018-08-06T22:08:14.933Z,27.80
2018-08-06T22:10:43.418Z,27.79
2018-08-06T22:13:12.341Z,27.83
2018-08-06T22:15:40.902Z,27.80
2018-08-06T22:18:12.625Z,27.83
2018-08-06T22:20:41.439Z,27.91
2018-08-06T22:23:10.299Z,28.01
2018-08-06T22:25:39.013Z,27.96
2018-08-06T22:28:09.522Z,27.94
2018-08-06T22:30:38.022Z,27.98
2018-08-06T22:33:06.530Z,27.93
2018-08-06T22:35:35.110Z,27.87
2018-08-06T22:38:03.674Z,27.75
2018-08-06T22:40:32.090Z,27.67
2018-08-06T22:43:00.605Z,27.69
2018-08-06T22:45:29.088Z,27.63
2018-08-06T22:47:57.548Z,27.55
2018-08-06T22:50:26.022Z,27.53
2018-08-06T22:52:55.157Z,27.39
2018-08-06T22:55:23.654Z,27.34
2018-08-06T22:57:52.108Z,27.32
2018-08-06T23:00:20.789Z,27.26
2018-08-06T23:02:49.257Z,27.29
2018-08-06T23:05:17.713Z,27.32
2018-08-06T23:07:46.576Z,27.38
2018-08-06T23:10:16.836Z,27.31
2018-08-06T23:12:45.413Z,27.19
2018-08-06T23:15:15.489Z,27.07
2018-08-06T23:17:44.624Z,27.00
2018-08-06T23:20:13.474Z,26.92
2018-08-06T23:22:42.212Z,26.85
2018-08-06T23:25:11.421Z,26.84
2018-08-06T23:27:40.196Z,26.80
2018-08-06T23:30:12.666Z,26.77
2018-08-06T23:32:41.558Z,26.80
2018-08-06T23:35:11.822Z,26.69
2018-08-06T23:37:41.698Z,26.69
2018-08-06T23:40:11.678Z,26.71
2018-08-06T23:42:40.913Z,26.74
2018-08-06T23:45:11.229Z,26.73
2018-08-06T23:47:40.437Z,26.66
2018-08-06T23:50:11.786Z,26.57
2018-08-06T23:52:41.610Z,26.47
2018-08-06T23:55:11.798Z,26.35
2018-08-06T23:57:40.225Z,26.23
